Time;durP1;ratioP1;P1;durP2;ratioP2;P2;SDS_P1;SDS_P2;PMS_P1;PMS_P2;Temp;Humidity;BMP_temperature;BMP_pressure;BME280_temperature;BME280_humidity;BME280_pressure;Samples;Min_cycle;Max_cycle;Signal;HPM_P1;HPM_P2
2022/04/19 00:00:42;;;;;;;8.18;3.30;;;;;;;6.04;47.95;99542.69;6155652;23;20029;-70
2022/04/19 00:03:10;;;;;;;13.35;3.88;;;;;;;6.03;48.86;99549.31;6155960;23;20026;-69
2022/04/19 00:05:38;;;;;;;10.13;3.67;;;;;;;6.03;48.89;99538.28;6156056;23;20100;-70
2022/04/19 00:08:06;;;;;;;6.65;2.92;;;;;;;6.04;48.43;99542.69;6155653;23;20025;-70
2022/04/19 00:10:34;;;;;;;6.75;2.97;;;;;;;6.07;48.52;99539.31;6155725;23;20101;-69
2022/04/19 00:13:03;;;;;;;8.20;3.08;;;;;;;6.09;48.59;99539.81;6156087;23;20120;-69
2022/04/19 00:15:32;;;;;;;7.13;3.22;;;;;;;6.11;48.87;99545.88;6155781;23;20025;-70
2022/04/19 00:18:00;;;;;;;5.85;3.17;;;;;;;6.11;48.44;99554.16;6156064;23;20454;-69
2022/04/19 00:20:30;;;;;;;7.72;3.10;;;;;;;6.11;48.95;99551.38;6156183;23;20468;-71
2022/04/19 00:23:00;;;;;;;8.37;2.70;;;;;;;6.11;48.95;99545.88;6156767;23;20430;-70
2022/04/19 00:25:27;;;;;;;5.40;3.03;;;;;;;6.12;49.11;99545.56;6155982;23;20104;-70
2022/04/19 00:27:54;;;;;;;5.07;2.85;;;;;;;6.14;48.71;99536.97;6155540;23;20114;-69
2022/04/19 00:30:21;;;;;;;7.82;3.90;;;;;;;6.18;49.16;99533.28;6155735;23;20100;-69
2022/04/19 00:32:48;;;;;;;6.75;3.17;;;;;;;6.26;48.32;99531.78;6155553;23;20057;-70
2022/04/19 00:35:14;;;;;;;7.47;3.15;;;;;;;6.32;48.91;99525.88;6155727;23;20108;-69
2022/04/19 00:37:42;;;;;;;8.35;3.00;;;;;;;6.31;48.55;99532.50;6155650;23;20029;-71
2022/04/19 00:40:09;;;;;;;7.03;3.15;;;;;;;6.29;49.30;99526.47;6155656;23;20214;-70
2022/04/19 00:42:36;;;;;;;8.05;3.50;;;;;;;6.24;48.73;99531.25;6155250;23;20427;-70
2022/04/19 00:45:05;;;;;;;9.23;2.95;;;;;;;6.24;49.51;99536.78;6156128;23;20029;-69
2022/04/19 00:47:34;;;;;;;4.88;2.88;;;;;;;6.17;49.61;99537.19;6155479;23;20022;-69
2022/04/19 00:50:02;;;;;;;5.15;2.50;;;;;;;6.19;49.22;99529.41;6155215;23;20108;-69
2022/04/19 00:52:37;;;;;;;7.40;2.78;;;;;;;6.18;49.91;99526.94;6155781;23;20064;-70
2022/04/19 00:55:07;;;;;;;7.50;3.22;;;;;;;6.22;49.69;99528.00;6155568;23;20107;-69
2022/04/19 00:57:37;;;;;;;7.65;3.33;;;;;;;6.30;49.07;99539.16;6155421;23;20041;-70
2022/04/19 01:00:08;;;;;;;8.15;3.08;;;;;;;6.26;49.47;99534.53;6155975;23;20032;-70
2022/04/19 01:02:37;;;;;;;5.90;2.92;;;;;;;6.20;49.68;99513.66;6154989;23;20033;-70
2022/04/19 01:05:05;;;;;;;7.60;2.72;;;;;;;6.21;49.58;99513.34;6155188;23;20060;-70
2022/04/19 01:07:33;;;;;;;5.53;3.00;;;;;;;6.25;50.19;99517.13;6155314;23;20062;-70
2022/04/19 01:10:01;;;;;;;6.10;3.15;;;;;;;6.30;50.19;99524.50;6155501;23;20468;-70
2022/04/19 01:15:16;;;;;;;7.13;2.65;;;;;;;6.22;50.15;99505.91;6155035;23;20061;-70
2022/04/19 01:17:43;;;;;;;7.47;3.00;;;;;;;6.17;50.93;99508.75;6154800;23;20056;-71
2022/04/19 01:20:14;;;;;;;7.00;2.70;;;;;;;6.12;51.07;99514.34;6155407;23;20029;-69
2022/04/19 01:22:42;;;;;;;6.97;3.00;;;;;;;6.10;50.63;99519.38;6155401;23;20025;-70
2022/04/19 01:25:10;;;;;;;6.80;2.95;;;;;;;6.06;51.49;99507.28;6155420;23;20029;-70
2022/04/19 01:27:38;;;;;;;5.45;2.53;;;;;;;5.98;51.57;99510.78;6155403;23;20041;-71
2022/04/19 01:30:08;;;;;;;7.53;2.80;;;;;;;6.01;51.13;99505.44;6155309;23;20100;-70
2022/04/19 01:32:36;;;;;;;9.77;2.45;;;;;;;6.05;51.19;99509.25;6155031;23;20366;-70
2022/04/19 01:35:19;;;;;;;6.80;2.65;;;;;;;6.04;51.47;99517.84;6155393;23;20031;-70
2022/04/19 01:37:48;;;;;;;4.72;2.40;;;;;;;6.02;51.00;99509.03;6155143;23;20017;-70
2022/04/19 01:40:16;;;;;;;10.70;2.72;;;;;;;6.05;51.68;99505.66;6155403;23;20461;-69
2022/04/19 01:42:45;;;;;;;10.48;3.40;;;;;;;6.03;51.10;99516.19;6155151;23;20060;-69
2022/04/19 01:45:17;;;;;;;4.28;2.22;;;;;;;5.96;51.37;99513.84;6155181;23;20479;-70
2022/04/19 01:47:44;;;;;;;6.80;2.97;;;;;;;5.89;51.97;99504.31;6155116;23;20029;-70
2022/04/19 01:50:14;;;;;;;6.65;2.70;;;;;;;5.92;51.76;99506.47;6155014;23;20030;-70
2022/04/19 01:52:41;;;;;;;7.32;2.97;;;;;;;5.94;51.62;99501.44;6155174;23;20060;-69
2022/04/19 01:55:13;;;;;;;6.78;2.92;;;;;;;5.98;52.22;99505.25;6154929;23;20453;-69
2022/04/19 01:57:45;;;;;;;6.78;2.92;;;;;;;5.98;51.63;99499.72;6177999;23;20104;-69
2022/04/19 02:00:13;;;;;;;6.38;2.67;;;;;;;5.91;51.95;99500.09;6155478;23;20112;-70
2022/04/19 02:02:45;;;;;;;9.65;3.15;;;;;;;5.93;52.04;99494.28;6155135;23;20022;-70
2022/04/19 02:05:14;;;;;;;10.13;3.20;;;;;;;5.91;52.42;99491.81;6154779;23;20032;-70
2022/04/19 02:07:43;;;;;;;4.93;2.63;;;;;;;5.86;52.28;99496.63;6155024;23;20072;-70
2022/04/19 02:10:12;;;;;;;5.88;3.08;;;;;;;5.79;52.58;99491.47;6155184;23;20032;-68
2022/04/19 02:12:40;;;;;;;4.73;2.83;;;;;;;5.77;52.42;99493.69;6155133;23;20044;-71
2022/04/19 02:15:08;;;;;;;4.97;2.70;;;;;;;5.77;52.32;99499.22;6154982;23;20769;-69
2022/04/19 02:17:46;;;;;;;6.40;2.35;;;;;;;5.79;52.31;99504.44;6154925;23;20022;-69
2022/04/19 02:20:16;;;;;;;9.32;2.70;;;;;;;5.76;52.58;99518.84;6155150;23;20061;-71
2022/04/19 02:22:44;;;;;;;6.07;2.75;;;;;;;5.70;53.48;99515.34;6155413;23;20466;-70
2022/04/19 02:25:12;;;;;;;6.97;2.70;;;;;;;5.68;53.22;99512.91;6155154;23;20116;-70
2022/04/19 02:27:41;;;;;;;6.80;2.75;;;;;;;5.69;53.28;99520.03;6155185;23;20112;-69
2022/04/19 02:30:14;;;;;;;4.63;2.22;;;;;;;5.62;54.06;99522.38;6155392;23;20116;-70
2022/04/19 02:32:49;;;;;;;7.13;2.30;;;;;;;5.61;53.89;99518.00;6154683;23;20052;-70
2022/04/19 02:35:21;;;;;;;3.85;2.30;;;;;;;5.62;53.32;99519.63;6155325;23;20368;-70
2022/04/19 02:37:53;;;;;;;5.47;2.72;;;;;;;5.66;53.54;99519.84;6154850;23;20026;-69
2022/04/19 02:40:22;;;;;;;5.50;2.17;;;;;;;5.72;53.79;99524.97;6153261;23;20501;-70
2022/04/19 02:42:50;;;;;;;5.75;2.47;;;;;;;5.84;53.10;99523.72;6154417;23;20364;-69
2022/04/19 02:45:20;;;;;;;6.32;2.10;;;;;;;5.91;53.30;99524.13;6154476;23;20112;-68
2022/04/19 02:47:51;;;;;;;4.53;2.67;;;;;;;5.91;52.93;99533.25;6154735;23;20021;-69
2022/04/19 02:50:18;;;;;;;;;;;;;;;5.87;52.96;99553.47;6155860;23;20053;-70
2022/04/19 02:52:45;;;;;;;9.48;2.22;;;;;;;5.90;53.18;99545.41;6154984;23;19921;-70
2022/04/19 02:55:12;;;;;;;5.95;2.40;;;;;;;5.88;53.25;99542.13;6155963;23;20415;-70
2022/04/19 02:57:39;;;;;;;5.97;2.90;;;;;;;5.96;53.05;99554.41;6154522;23;20112;-69
2022/04/19 03:00:06;;;;;;;5.05;2.13;;;;;;;5.96;53.41;99557.19;6155889;23;20104;-70
2022/04/19 03:02:33;;;;;;;7.32;2.50;;;;;;;5.92;53.29;99561.66;6155525;23;20406;-70
2022/04/19 03:05:01;;;;;;;7.85;2.60;;;;;;;5.90;53.28;99558.38;6156677;23;20406;-70
2022/04/19 03:07:28;;;;;;;7.63;2.42;;;;;;;5.91;53.50;99571.88;6156568;23;20100;-70
2022/04/19 03:09:55;;;;;;;6.25;2.95;;;;;;;5.93;53.64;99574.34;6156628;23;20025;-70
2022/04/19 03:12:22;;;;;;;5.72;2.50;;;;;;;5.88;53.33;99574.41;6156125;23;20036;-70
2022/04/19 03:14:51;;;;;;;10.00;2.85;;;;;;;5.83;53.97;99569.00;6156465;23;20029;-70
2022/04/19 03:17:18;;;;;;;6.03;2.17;;;;;;;5.85;53.76;99583.31;6156376;23;20076;-70
2022/04/19 03:19:45;;;;;;;5.43;2.35;;;;;;;5.90;53.87;99570.25;6156512;23;20053;-70
2022/04/19 03:22:12;;;;;;;5.32;2.20;;;;;;;5.94;53.76;99570.44;6156442;23;20414;-70
2022/04/19 03:27:43;;;;;;;6.05;2.47;;;;;;;5.95;53.19;99578.44;6156159;23;20022;-70
2022/04/19 03:30:14;;;;;;;5.88;2.67;;;;;;;5.90;53.19;99569.44;6156089;23;20029;-70
2022/04/19 03:32:45;;;;;;;5.85;2.22;;;;;;;5.85;53.74;99577.78;6156122;23;20120;-70
2022/04/19 03:35:12;;;;;;;8.18;2.20;;;;;;;5.81;53.40;99573.97;6155947;23;20025;-70
2022/04/19 03:37:39;;;;;;;6.07;2.63;;;;;;;5.81;53.23;99593.28;6156133;23;20072;-70
2022/04/19 03:40:07;;;;;;;7.60;2.70;;;;;;;5.82;53.40;99590.25;6156344;23;20060;-69
2022/04/19 03:42:34;;;;;;;4.13;2.60;;;;;;;5.77;54.23;99582.00;6155671;23;20049;-69
2022/04/19 03:45:00;;;;;;;10.93;3.00;;;;;;;5.66;54.15;99586.88;6154612;23;20036;-69
2022/04/19 03:47:28;;;;;;;12.43;2.55;;;;;;;5.62;54.56;99571.22;6156266;23;20438;-71
2022/04/19 03:49:55;;;;;;;8.02;2.72;;;;;;;5.63;54.03;99576.44;6156236;23;20025;-70
2022/04/19 03:52:22;;;;;;;6.03;2.72;;;;;;;5.70;54.27;99573.31;6156251;23;20104;-70
2022/04/19 03:54:49;;;;;;;6.55;2.50;;;;;;;5.77;54.12;99581.22;6156271;23;20112;-70
2022/04/19 03:57:17;;;;;;;4.93;2.78;;;;;;;5.90;53.56;99578.53;6155626;23;20055;-70
2022/04/19 03:59:44;;;;;;;8.88;2.53;;;;;;;6.04;53.20;99578.59;6156387;23;20417;-70
2022/04/19 04:02:15;;;;;;;8.27;2.90;;;;;;;6.16;52.69;99578.94;6155992;23;20064;-69
2022/04/19 04:04:42;;;;;;;8.40;2.65;;;;;;;6.32;52.76;99570.06;6156449;23;20026;-71
2022/04/19 04:07:09;;;;;;;10.40;2.83;;;;;;;6.44;52.38;99570.38;6155719;23;20045;-69
2022/04/19 04:09:36;;;;;;;7.18;2.50;;;;;;;6.52;52.03;99566.09;6156447;23;20108;-70
2022/04/19 04:12:09;;;;;;;7.05;2.55;;;;;;;6.61;52.07;99570.63;6156058;23;20060;-70
2022/04/19 04:14:36;;;;;;;8.65;2.40;;;;;;;6.52;52.22;99574.38;6155826;23;20361;-69
2022/04/19 04:17:03;;;;;;;4.05;2.30;;;;;;;6.57;52.59;99579.81;6156045;23;20025;-69
2022/04/19 04:19:30;;;;;;;7.07;2.55;;;;;;;6.66;52.47;99575.22;6156225;23;20108;-70
2022/04/19 04:21:57;;;;;;;10.88;2.30;;;;;;;6.68;53.13;99564.66;6156225;23;20026;-70
2022/04/19 04:24:24;;;;;;;6.43;2.40;;;;;;;6.72;52.88;99558.22;6155994;23;20457;-70
2022/04/19 04:26:51;;;;;;;5.43;2.30;;;;;;;6.84;52.69;99557.72;6155445;23;20032;-71
2022/04/19 04:29:18;;;;;;;4.93;2.35;;;;;;;6.96;51.97;99569.88;6155910;23;20057;-69
2022/04/19 04:31:45;;;;;;;5.40;2.17;;;;;;;7.01;52.29;99563.41;6155628;23;20414;-69
2022/04/19 04:34:12;;;;;;;6.47;2.28;;;;;;;6.98;52.72;99561.28;6155705;23;20029;-70
2022/04/19 04:36:39;;;;;;;8.45;2.42;;;;;;;7.06;52.45;99574.38;6155632;23;20025;-70
2022/04/19 04:39:06;;;;;;;5.50;2.25;;;;;;;7.17;52.77;99573.06;6155249;23;20104;-70
2022/04/19 04:41:33;;;;;;;8.80;2.03;;;;;;;7.32;52.47;99569.94;6155985;23;20415;-70
2022/04/19 04:44:00;;;;;;;6.38;2.22;;;;;;;7.44;52.05;99565.50;6155153;23;20025;-70
2022/04/19 04:51:58;;;;;;;5.10;2.50;;;;;;;7.40;52.01;99577.50;6155440;23;20108;-70
2022/04/19 04:54:25;;;;;;;7.50;3.15;;;;;;;7.40;52.12;99577.50;6155545;23;20052;-70
2022/04/19 04:56:53;;;;;;;8.48;3.15;;;;;;;7.49;52.48;99581.16;6155378;23;20025;-71
2022/04/19 04:59:20;;;;;;;4.05;1.75;;;;;;;7.37;52.53;99578.13;6155361;23;20052;-70
2022/04/19 05:01:47;;;;;;;9.60;2.10;;;;;;;7.34;52.94;99574.03;6155000;23;20025;-70
2022/04/19 05:04:17;;;;;;;8.13;1.92;;;;;;;7.42;52.74;99580.78;6155470;23;20029;-70
2022/04/19 05:06:43;;;;;;;8.05;2.15;;;;;;;7.47;52.94;99584.25;6155401;23;20117;-70
2022/04/19 05:09:10;;;;;;;10.40;2.47;;;;;;;7.53;52.59;99588.53;6155296;23;20112;-70
2022/04/19 05:11:37;;;;;;;5.47;2.28;;;;;;;7.57;52.29;99582.38;6155411;23;20029;-70
2022/04/19 05:14:04;;;;;;;6.55;2.83;;;;;;;7.56;52.32;99576.03;6128862;23;20021;-70
2022/04/19 05:16:31;;;;;;;8.23;2.00;;;;;;;7.65;52.44;99589.94;6155260;23;20104;-71
2022/04/19 05:18:58;;;;;;;4.03;2.13;;;;;;;7.77;52.07;99577.19;6155358;23;20076;-70
2022/04/19 05:21:25;;;;;;;11.90;2.53;;;;;;;7.83;51.78;99588.97;6154861;23;20116;-71
2022/04/19 05:23:52;;;;;;;5.40;2.20;;;;;;;7.91;51.67;99588.22;6155115;23;20029;-70
2022/04/19 05:26:19;;;;;;;11.70;2.20;;;;;;;8.04;51.31;99593.69;6155100;23;20052;-70
2022/04/19 05:28:46;;;;;;;4.15;2.28;;;;;;;8.09;51.41;99590.81;6155816;23;20075;-71
2022/04/19 05:31:13;;;;;;;3.88;1.88;;;;;;;8.16;51.34;99580.09;6155053;23;20060;-71
2022/04/19 05:33:40;;;;;;;4.13;2.00;;;;;;;8.06;51.48;99583.13;6155112;23;20029;-70
2022/04/19 05:36:07;;;;;;;4.80;1.80;;;;;;;7.87;52.04;99579.72;6155307;23;20029;-73
2022/04/19 05:38:34;;;;;;;6.45;2.00;;;;;;;7.76;52.39;99578.34;6154775;23;20025;-71
2022/04/19 05:41:07;;;;;;;3.28;1.77;;;;;;;7.90;52.09;99581.06;6155313;23;20482;-71
2022/04/19 05:43:34;;;;;;;4.82;1.80;;;;;;;8.05;51.83;99577.91;6154850;23;20060;-71
2022/04/19 05:46:01;;;;;;;4.63;2.03;;;;;;;8.14;51.92;99582.34;6155197;23;20137;-71
2022/04/19 05:48:28;;;;;;;3.40;1.58;;;;;;;8.28;51.86;99572.06;6154884;23;20112;-71
2022/04/19 05:50:55;;;;;;;4.72;1.58;;;;;;;8.17;51.86;99569.84;6155439;23;20053;-70
2022/04/19 05:53:22;;;;;;;3.78;1.65;;;;;;;8.41;51.47;99582.22;6155061;23;20472;-71
2022/04/19 05:55:49;;;;;;;6.43;1.77;;;;;;;8.48;51.31;99570.69;6155194;23;20056;-70
2022/04/19 05:58:16;;;;;;;5.97;1.92;;;;;;;8.75;50.61;99576.03;6155357;23;20026;-71
2022/04/19 06:00:43;;;;;;;4.65;2.78;;;;;;;9.06;50.06;99571.28;6155107;23;20417;-70
2022/04/19 06:05:56;;;;;;;13.80;4.47;;;;;;;9.10;50.32;99578.63;6155064;23;20417;-70
2022/04/19 06:08:23;;;;;;;7.10;2.20;;;;;;;9.28;49.56;99580.31;6155074;23;20398;-70
2022/04/19 06:10:50;;;;;;;3.22;1.80;;;;;;;9.30;49.62;99575.22;6155032;23;20104;-72
2022/04/19 06:13:17;;;;;;;12.43;2.40;;;;;;;9.39;49.57;99586.38;6154854;23;20032;-70
2022/04/19 06:15:44;;;;;;;3.67;1.58;;;;;;;9.45;49.48;99578.69;6155030;23;20029;-70
2022/04/19 06:18:11;;;;;;;7.88;1.88;;;;;;;9.49;49.45;99579.66;6154857;23;20018;-71
2022/04/19 06:20:40;;;;;;;5.07;1.73;;;;;;;9.66;48.60;99579.69;6155133;23;20080;-71
2022/04/19 06:23:09;;;;;;;4.30;1.77;;;;;;;9.69;48.56;99585.44;6154879;23;20032;-73
2022/04/19 06:25:36;;;;;;;7.15;1.83;;;;;;;9.80;48.41;99572.84;6155140;23;20395;-71
2022/04/19 06:28:03;;;;;;;4.43;2.05;;;;;;;10.03;47.76;99574.31;6154907;23;20060;-71
2022/04/19 06:30:30;;;;;;;13.63;3.15;;;;;;;10.35;47.42;99587.72;6155012;23;20025;-70
2022/04/19 06:32:57;;;;;;;6.57;2.42;;;;;;;10.34;47.53;99574.97;6154787;23;20089;-70
2022/04/19 06:35:24;;;;;;;6.28;1.88;;;;;;;10.41;47.03;99568.88;6154814;23;20032;-71
2022/04/19 06:37:51;;;;;;;2.90;1.60;;;;;;;10.93;46.37;99570.34;6155970;23;20120;-71
2022/04/19 06:40:18;;;;;;;3.20;1.80;;;;;;;11.91;44.51;99579.09;6157070;23;20029;-70
2022/04/19 06:42:45;;;;;;;11.38;1.90;;;;;;;12.78;42.40;99579.50;6156455;23;20116;-71
2022/04/19 06:45:12;;;;;;;4.88;1.98;;;;;;;12.68;42.44;99582.72;6156481;23;20061;-70
2022/04/19 06:47:40;;;;;;;9.13;2.00;;;;;;;12.69;42.59;99592.75;6156680;23;20044;-71
2022/04/19 06:50:08;;;;;;;5.45;2.63;;;;;;;12.11;43.17;99598.56;6156632;23;20032;-70
2022/04/19 06:52:35;;;;;;;13.10;2.13;;;;;;;11.46;43.64;99586.44;6156343;23;20057;-71
2022/04/19 06:55:03;;;;;;;5.63;1.80;;;;;;;11.35;43.89;99591.56;6156754;23;20528;-71
2022/04/19 06:57:35;;;;;;;10.40;2.65;;;;;;;11.32;44.43;99586.69;6156201;23;20025;-70
2022/04/19 07:00:04;;;;;;;10.85;2.15;;;;;;;11.50;43.80;99585.41;6157046;23;20034;-70
2022/04/19 07:02:31;;;;;;;6.35;2.22;;;;;;;11.70;43.43;99587.44;6156313;23;20109;-71
2022/04/19 07:04:59;;;;;;;4.45;2.05;;;;;;;11.42;44.02;99580.72;6156694;23;20052;-70
2022/04/19 07:07:26;;;;;;;4.38;2.20;;;;;;;11.58;43.57;99578.16;6156759;23;20030;-70
2022/04/19 07:09:53;;;;;;;32.35;13.35;;;;;;;11.65;43.93;99584.03;6156250;23;20056;-71
2022/04/19 07:12:20;;;;;;;17.30;4.30;;;;;;;11.52;44.41;99585.88;6156388;23;20111;-71
2022/04/19 07:14:48;;;;;;;5.65;2.25;;;;;;;11.74;43.68;99584.78;6156939;23;20072;-71
2022/04/19 07:17:15;;;;;;;9.07;2.08;;;;;;;11.95;43.38;99585.59;6156114;23;20124;-71
2022/04/19 07:28:02;;;;;;;6.78;2.28;;;;;;;12.70;41.98;99585.19;6156556;23;20032;-71
2022/04/19 07:30:29;;;;;;;9.25;2.60;;;;;;;12.80;41.80;99591.13;6156384;23;20347;-71
2022/04/19 07:32:56;;;;;;;14.85;2.00;;;;;;;13.02;41.61;99589.13;6156793;23;20104;-69
2022/04/19 07:35:23;;;;;;;3.97;2.17;;;;;;;13.17;41.29;99583.66;6156322;23;20112;-70
2022/04/19 07:37:51;;;;;;;11.13;1.92;;;;;;;13.32;40.94;99582.16;6155966;23;20077;-69
2022/04/19 07:40:18;;;;;;;9.30;2.25;;;;;;;12.85;41.51;99576.97;6156293;23;20032;-70
2022/04/19 07:42:45;;;;;;;10.57;2.20;;;;;;;12.48;42.21;99586.41;6156247;23;20105;-70
2022/04/19 07:45:12;;;;;;;6.70;1.83;;;;;;;12.18;43.11;99587.72;6155937;23;20064;-69
2022/04/19 07:47:39;;;;;;;4.35;1.75;;;;;;;11.78;43.89;99594.91;6156022;23;20373;-69
2022/04/19 07:50:06;;;;;;;4.22;1.77;;;;;;;11.42;44.25;99583.50;6156276;23;20025;-70
2022/04/19 07:52:34;;;;;;;5.35;2.28;;;;;;;11.24;44.77;99590.31;6155878;23;20079;-69
2022/04/19 07:55:02;;;;;;;7.35;2.58;;;;;;;11.19;44.97;99593.28;6155790;23;20029;-70
2022/04/19 07:57:29;;;;;;;8.50;3.00;;;;;;;10.98;45.01;99606.31;6155983;23;20025;-70
2022/04/19 07:59:56;;;;;;;5.32;2.38;;;;;;;10.70;46.33;99596.78;6156203;23;20109;-69
2022/04/19 08:02:23;;;;;;;4.25;2.22;;;;;;;10.41;47.06;99597.50;6155720;23;20029;-70
2022/04/19 08:04:51;;;;;;;8.90;3.55;;;;;;;10.18;46.97;99603.56;6156081;23;20030;-70
2022/04/19 08:07:18;;;;;;;12.45;2.15;;;;;;;10.08;47.60;99601.97;6155849;23;20056;-70
2022/04/19 08:09:45;;;;;;;11.23;2.75;;;;;;;10.04;47.40;99589.81;6156026;23;20064;-70
2022/04/19 08:12:12;;;;;;;5.20;2.40;;;;;;;10.06;47.31;99595.06;6155618;23;20026;-70
2022/04/19 08:14:42;;;;;;;4.15;2.20;;;;;;;10.14;46.84;99583.16;6156407;23;20056;-69
2022/04/19 08:17:09;;;;;;;4.93;2.22;;;;;;;10.31;46.97;99580.34;6155647;23;20053;-69
2022/04/19 08:19:36;;;;;;;9.30;2.38;;;;;;;10.38;47.01;99592.59;6155868;23;20018;-69
2022/04/19 08:22:03;;;;;;;6.97;2.60;;;;;;;10.32;47.12;99598.66;6155531;23;20032;-69
2022/04/19 08:24:30;;;;;;;9.68;2.40;;;;;;;10.22;47.41;99585.91;6155901;23;20109;-66
2022/04/19 08:26:57;;;;;;;14.23;2.60;;;;;;;10.17;48.19;99596.41;6155286;23;20026;-70
2022/04/19 08:29:24;;;;;;;9.82;3.60;;;;;;;10.14;47.51;99591.50;6155845;23;20096;-68
2022/04/19 08:31:51;;;;;;;7.78;2.60;;;;;;;10.28;47.76;99590.19;6154269;23;20029;-70
2022/04/19 08:34:18;;;;;;;10.57;2.17;;;;;;;10.56;46.98;99593.38;6155819;23;20021;-70
2022/04/19 08:36:46;;;;;;;10.95;1.98;;;;;;;10.89;46.73;99592.44;6155407;23;20031;-69
2022/04/19 08:39:13;;;;;;;13.80;2.80;;;;;;;10.99;46.73;99585.72;6155751;23;20347;-69
2022/04/19 08:41:42;;;;;;;9.77;2.65;;;;;;;10.94;46.39;99594.22;6155921;23;20477;-70
2022/04/19 08:44:09;;;;;;;5.95;1.77;;;;;;;10.83;47.21;99606.88;6155508;23;20029;-69
2022/04/19 08:46:39;;;;;;;4.93;2.30;;;;;;;10.66;48.11;99604.16;6155967;23;20060;-70
2022/04/19 08:49:07;;;;;;;5.10;2.33;;;;;;;10.61;46.83;99601.56;6155371;23;20513;-70
2022/04/19 08:51:35;;;;;;;5.28;2.30;;;;;;;10.53;47.92;99605.16;6155665;23;20047;-70
2022/04/19 08:59:34;;;;;;;8.63;2.47;;;;;;;10.82;46.97;99581.03;6155140;23;20026;-70
2022/04/19 09:02:00;;;;;;;7.03;2.47;;;;;;;10.87;46.78;99572.47;6155032;23;20025;-69
2022/04/19 09:04:28;;;;;;;8.13;2.58;;;;;;;11.05;46.69;99595.50;6155419;23;20036;-70
2022/04/19 09:06:57;;;;;;;8.43;2.35;;;;;;;11.08;46.29;99589.28;6154926;23;20076;-69
2022/04/19 09:09:26;;;;;;;8.10;2.53;;;;;;;11.13;46.67;99591.06;6155066;23;20022;-70
2022/04/19 09:12:07;;;;;;;5.88;2.65;;;;;;;11.13;46.65;99577.13;6155648;23;20453;-70
2022/04/19 09:14:35;;;;;;;9.55;2.45;;;;;;;11.29;46.35;99583.75;6155327;23;20064;-69
2022/04/19 09:17:04;;;;;;;7.43;2.53;;;;;;;11.50;46.53;99579.03;6154756;23;20462;-70
2022/04/19 09:19:32;;;;;;;3.75;2.10;;;;;;;11.46;46.61;99581.66;6154603;23;20026;-70
2022/04/19 09:21:59;;;;;;;9.30;2.63;;;;;;;11.41;46.57;99579.09;6155019;23;20047;-69
2022/04/19 09:24:27;;;;;;;6.35;2.60;;;;;;;11.53;46.64;99587.53;6155239;23;20096;-69
2022/04/19 09:26:54;;;;;;;19.02;7.40;;;;;;;11.46;46.78;99578.09;6155382;23;20029;-70
2022/04/19 09:29:27;;;;;;;6.65;2.78;;;;;;;11.51;47.13;99587.03;6155221;23;20092;-64
2022/04/19 09:31:58;;;;;;;5.65;2.53;;;;;;;11.69;46.64;99582.22;6154925;23;20428;-66
2022/04/19 09:34:31;;;;;;;5.90;2.22;;;;;;;11.86;46.22;99587.63;6154848;23;20051;-65
2022/04/19 09:37:06;;;;;;;6.13;2.80;;;;;;;12.10;46.31;99596.13;6155293;23;20047;-65
2022/04/19 09:39:37;;;;;;;8.18;2.25;;;;;;;12.18;46.14;99587.72;6154928;23;20390;-64
2022/04/19 09:42:10;;;;;;;4.85;2.38;;;;;;;12.46;45.99;99582.31;6155405;23;20484;-65
2022/04/19 09:44:58;;;;;;;18.27;2.40;;;;;;;12.78;45.31;99590.69;6156156;23;20021;-65
2022/04/19 09:47:26;;;;;;;7.70;2.40;;;;;;;13.04;44.57;99582.03;6154149;23;20029;-65
2022/04/19 09:49:54;;;;;;;4.32;2.05;;;;;;;13.21;44.27;99590.19;6155350;23;20422;-64
2022/04/19 09:52:20;;;;;;;6.07;3.20;;;;;;;13.51;43.82;99590.75;6154724;23;20060;-65
2022/04/19 09:55:01;;;;;;;6.65;2.65;;;;;;;13.65;43.52;99582.81;6155377;23;20022;-66
2022/04/19 09:57:32;;;;;;;6.97;3.22;;;;;;;13.63;43.70;99585.97;6154838;23;20029;-66
2022/04/19 10:00:00;;;;;;;6.90;2.17;;;;;;;13.74;43.38;99589.88;6154689;23;20361;-65
2022/04/19 10:08:11;;;;;;;4.85;2.70;;;;;;;13.69;43.51;99594.91;6155234;23;20031;-66
2022/04/19 10:10:38;;;;;;;10.32;2.70;;;;;;;13.78;43.46;99593.63;6154654;23;20029;-65
2022/04/19 10:13:06;;;;;;;12.80;5.25;;;;;;;13.89;43.01;99593.94;6156682;23;20021;-65
2022/04/19 10:15:36;;;;;;;3.22;2.05;;;;;;;13.77;43.45;99593.97;6156959;23;20083;-65
2022/04/19 10:18:05;;;;;;;10.88;2.88;;;;;;;13.69;43.51;99586.53;6156713;23;20045;-65
2022/04/19 10:20:35;;;;;;;5.60;1.83;;;;;;;13.63;43.65;99585.16;6156951;23;20398;-65
2022/04/19 10:23:08;;;;;;;13.75;3.65;;;;;;;13.54;43.81;99607.63;6156506;23;20112;-65
2022/04/19 10:25:44;;;;;;;6.78;3.47;;;;;;;13.50;44.00;99598.31;6156875;23;20060;-66
2022/04/19 10:28:13;;;;;;;12.82;4.88;;;;;;;13.53;44.05;99591.22;6156544;23;20116;-65
2022/04/19 10:30:52;;;;;;;9.02;2.50;;;;;;;13.64;43.62;99592.34;6156961;23;20037;-65
2022/04/19 10:33:38;;;;;;;3.88;2.08;;;;;;;13.75;43.40;99591.53;6156747;23;20029;-65
2022/04/19 10:36:17;;;;;;;6.88;2.05;;;;;;;13.74;43.76;99586.28;6157508;23;20028;-66
2022/04/19 10:38:46;;;;;;;9.10;2.05;;;;;;;13.87;43.36;99582.28;6156494;23;20109;-65
2022/04/19 10:41:55;;;;;;;4.18;2.30;;;;;;;14.00;43.12;99589.47;6156439;23;20423;-65
2022/04/19 10:44:28;;;;;;;4.50;2.17;;;;;;;14.22;42.86;99586.16;6156226;23;20029;-65
2022/04/19 10:47:18;;;;;;;3.85;2.03;;;;;;;14.10;42.79;99586.19;6155187;23;20033;-68
2022/04/19 10:49:48;;;;;;;7.45;2.00;;;;;;;14.25;42.97;99577.09;6154742;23;20100;-64
2022/04/19 10:52:37;;;;;;;9.85;2.30;;;;;;;14.42;42.46;99571.97;6156528;23;20033;-66
2022/04/19 10:55:08;;;;;;;5.97;1.95;;;;;;;14.71;41.84;99576.38;6156643;23;20021;-66
2022/04/19 11:00:30;;;;;;;5.95;1.92;;;;;;;14.49;42.20;99568.56;6156473;23;20053;-65
2022/04/19 11:03:29;;;;;;;2.83;1.50;;;;;;;14.16;42.33;99563.22;6156565;23;20029;-64
2022/04/19 11:05:57;;;;;;;5.65;1.67;;;;;;;13.99;42.89;99543.94;6157112;23;20033;-69
2022/04/19 11:08:24;;;;;;;10.52;1.88;;;;;;;13.88;43.15;99548.38;6156097;23;20142;-65
2022/04/19 11:10:58;;;;;;;9.50;1.58;;;;;;;13.89;43.45;99555.59;6156798;23;20466;-65
2022/04/19 11:13:27;;;;;;;6.72;1.45;;;;;;;14.04;43.43;99546.44;6156804;23;20021;-65
2022/04/19 11:16:08;;;;;;;3.77;1.27;;;;;;;14.38;42.46;99557.09;6156093;23;20352;-66
2022/04/19 11:18:41;;;;;;;3.83;1.73;;;;;;;14.71;42.20;99561.56;6155673;23;20032;-63
2022/04/19 11:21:51;;;;;;;4.88;1.83;;;;;;;14.89;41.00;99549.63;6154430;23;20025;-69
2022/04/19 11:24:56;;;;;;;3.80;1.95;;;;;;;14.86;40.83;99550.38;6155846;23;20026;-64
2022/04/19 11:27:44;;;;;;;7.95;1.75;;;;;;;14.62;41.29;99548.53;6156177;23;20030;-72
2022/04/19 11:30:15;;;;;;;3.50;1.58;;;;;;;14.25;41.88;99557.50;6155952;23;20060;-70
2022/04/19 11:32:43;;;;;;;4.80;1.38;;;;;;;13.82;42.45;99537.78;6155832;23;20025;-65
2022/04/19 11:35:16;;;;;;;5.28;1.63;;;;;;;13.65;42.31;99536.09;6155855;23;20057;-64
2022/04/19 11:37:44;;;;;;;4.35;1.58;;;;;;;13.48;42.61;99546.72;6155000;23;20116;-64
2022/04/19 11:48:52;;;;;;;2.97;1.23;;;;;;;13.72;42.43;99541.09;6154318;23;20022;-65
2022/04/19 11:51:21;;;;;;;4.28;1.42;;;;;;;13.99;41.97;99537.50;6155442;23;20549;-64
2022/04/19 11:53:50;;;;;;;2.55;1.17;;;;;;;14.11;41.47;99531.88;6156152;23;20025;-69
2022/04/19 11:56:17;;;;;;;2.15;1.20;;;;;;;14.25;41.08;99551.91;6156118;23;20342;-64
2022/04/19 11:58:50;;;;;;;5.13;1.20;;;;;;;14.36;41.16;99536.22;6153782;23;20056;-72
2022/04/19 12:01:18;;;;;;;6.65;1.58;;;;;;;14.42;40.78;99540.41;6154078;23;20481;-64
2022/04/19 12:03:45;;;;;;;2.30;1.20;;;;;;;14.68;40.50;99535.09;6154542;23;20029;-63
2022/04/19 12:06:18;;;;;;;1.55;0.90;;;;;;;14.81;40.14;99536.66;6155652;23;20137;-65
2022/04/19 12:08:49;;;;;;;5.45;1.10;;;;;;;14.83;40.41;99539.88;6155929;23;20033;-64
2022/04/19 12:11:25;;;;;;;6.18;1.10;;;;;;;14.87;40.15;99546.41;6155699;23;20032;-70
2022/04/19 12:13:53;;;;;;;2.75;1.10;;;;;;;14.76;40.18;99545.31;6156092;23;20052;-69
2022/04/19 12:16:37;;;;;;;2.22;1.40;;;;;;;14.63;40.22;99543.78;6155722;23;20033;-69
2022/04/19 12:19:10;;;;;;;2.65;1.08;;;;;;;14.57;40.62;99537.59;6154360;23;20026;-69
2022/04/19 12:21:39;;;;;;;5.28;1.20;;;;;;;14.47;40.56;99554.09;6154002;23;20520;-69
2022/04/19 12:24:23;;;;;;;5.22;2.40;;;;;;;14.41;40.36;99555.53;6153982;23;20036;-64
2022/04/19 12:27:10;;;;;;;10.73;4.68;;;;;;;14.34;40.85;99549.75;6155769;23;20057;-64
2022/04/19 12:29:53;;;;;;;7.00;1.63;;;;;;;14.28;40.50;99542.78;6155489;23;20108;-63
2022/04/19 12:32:20;;;;;;;6.20;1.48;;;;;;;14.24;40.77;99551.06;6155778;23;20029;-64